sensor_id;sensor_type;location;lat;lon;timestamp;temperature;humidity
23991;DHT22;12205;50.600;4.608;2022-12-11T00:00:27;1.50;99.90
23991;DHT22;12205;50.600;4.608;2022-12-11T00:02:55;1.50;99.90
23991;DHT22;12205;50.600;4.608;2022-12-11T00:05:22;1.50;99.90
23991;DHT22;12205;50.600;4.608;2022-12-11T00:07:50;1.50;99.90
23991;DHT22;12205;50.600;4.608;2022-12-11T00:10:18;1.40;99.90
23991;DHT22;12205;50.600;4.608;2022-12-11T00:12:45;1.50;99.90
23991;DHT22;12205;50.600;4.608;2022-12-11T00:15:13;1.50;99.90
23991;DHT22;12205;50.600;4.608;2022-12-11T00:17:40;1.50;99.90
23991;DHT22;12205;50.600;4.608;2022-12-11T00:20:08;1.50;99.90
23991;DHT22;12205;50.600;4.608;2022-12-11T00:22:36;1.50;99.90
23991;DHT22;12205;50.600;4.608;2022-12-11T00:25:04;1.50;99.90
23991;DHT22;12205;50.600;4.608;2022-12-11T00:27:33;1.40;99.90
23991;DHT22;12205;50.600;4.608;2022-12-11T00:30:00;1.50;99.90
23991;DHT22;12205;50.600;4.608;2022-12-11T00:32:27;1.50;99.90
23991;DHT22;12205;50.600;4.608;2022-12-11T00:34:54;1.50;99.90
23991;DHT22;12205;50.600;4.608;2022-12-11T00:37:22;1.60;99.90
23991;DHT22;12205;50.600;4.608;2022-12-11T00:39:49;1.50;99.90
23991;DHT22;12205;50.600;4.608;2022-12-11T00:42:16;1.50;99.90
23991;DHT22;12205;50.600;4.608;2022-12-11T00:44:44;1.50;99.90
23991;DHT22;12205;50.600;4.608;2022-12-11T00:47:11;1.50;99.90
23991;DHT22;12205;50.600;4.608;2022-12-11T00:49:39;1.50;99.90
23991;DHT22;12205;50.600;4.608;2022-12-11T00:52:06;1.50;99.90
23991;DHT22;12205;50.600;4.608;2022-12-11T00:54:34;1.40;99.90
23991;DHT22;12205;50.600;4.608;2022-12-11T00:57:01;1.40;99.90
23991;DHT22;12205;50.600;4.608;2022-12-11T00:59:28;1.40;99.90
23991;DHT22;12205;50.600;4.608;2022-12-11T01:01:57;1.30;99.90
23991;DHT22;12205;50.600;4.608;2022-12-11T01:04:24;1.40;99.90
23991;DHT22;12205;50.600;4.608;2022-12-11T01:06:51;1.40;99.90
23991;DHT22;12205;50.600;4.608;2022-12-11T01:09:18;1.30;99.90
23991;DHT22;12205;50.600;4.608;2022-12-11T01:12:03;1.30;99.90
23991;DHT22;12205;50.600;4.608;2022-12-11T01:14:31;1.40;99.90
23991;DHT22;12205;50.600;4.608;2022-12-11T01:16:59;1.40;99.90
23991;DHT22;12205;50.600;4.608;2022-12-11T01:19:26;1.40;99.90
23991;DHT22;12205;50.600;4.608;2022-12-11T01:21:54;1.40;99.90
23991;DHT22;12205;50.600;4.608;2022-12-11T01:24:21;1.40;99.90
23991;DHT22;12205;50.600;4.608;2022-12-11T01:26:48;1.50;99.90
23991;DHT22;12205;50.600;4.608;2022-12-11T01:29:15;1.50;99.90
23991;DHT22;12205;50.600;4.608;2022-12-11T01:31:42;1.40;99.90
23991;DHT22;12205;50.600;4.608;2022-12-11T01:34:11;1.40;99.90
23991;DHT22;12205;50.600;4.608;2022-12-11T01:36:38;1.30;99.90
23991;DHT22;12205;50.600;4.608;2022-12-11T01:39:05;1.40;99.90
23991;DHT22;12205;50.600;4.608;2022-12-11T01:41:32;1.40;99.90
23991;DHT22;12205;50.600;4.608;2022-12-11T01:44:02;1.50;99.90
23991;DHT22;12205;50.600;4.608;2022-12-11T01:46:33;1.50;99.90
23991;DHT22;12205;50.600;4.608;2022-12-11T01:49:05;1.50;99.90
23991;DHT22;12205;50.600;4.608;2022-12-11T01:51:39;1.50;99.90
23991;DHT22;12205;50.600;4.608;2022-12-11T01:54:12;1.50;99.90
23991;DHT22;12205;50.600;4.608;2022-12-11T01:56:44;1.50;99.90
23991;DHT22;12205;50.600;4.608;2022-12-11T01:59:15;1.50;99.90
23991;DHT22;12205;50.600;4.608;2022-12-11T02:01:49;1.60;99.90
23991;DHT22;12205;50.600;4.608;2022-12-11T02:04:21;1.50;99.90
23991;DHT22;12205;50.600;4.608;2022-12-11T02:06:51;1.50;99.90
23991;DHT22;12205;50.600;4.608;2022-12-11T02:09:22;1.60;99.90
23991;DHT22;12205;50.600;4.608;2022-12-11T02:11:56;1.60;99.90
23991;DHT22;12205;50.600;4.608;2022-12-11T02:14:31;1.60;99.90
23991;DHT22;12205;50.600;4.608;2022-12-11T02:17:06;1.60;99.90
23991;DHT22;12205;50.600;4.608;2022-12-11T02:19:50;1.60;99.90
23991;DHT22;12205;50.600;4.608;2022-12-11T02:22:43;1.60;99.90
23991;DHT22;12205;50.600;4.608;2022-12-11T02:25:38;1.60;99.90
23991;DHT22;12205;50.600;4.608;2022-12-11T02:28:23;1.50;99.90
23991;DHT22;12205;50.600;4.608;2022-12-11T02:31:00;1.60;99.90
23991;DHT22;12205;50.600;4.608;2022-12-11T02:33:35;1.60;99.90
23991;DHT22;12205;50.600;4.608;2022-12-11T02:36:09;1.60;99.90
23991;DHT22;12205;50.600;4.608;2022-12-11T02:38:40;1.60;99.90
23991;DHT22;12205;50.600;4.608;2022-12-11T02:41:11;1.70;99.90
23991;DHT22;12205;50.600;4.608;2022-12-11T02:43:41;1.70;99.90
23991;DHT22;12205;50.600;4.608;2022-12-11T02:46:11;1.70;99.90
23991;DHT22;12205;50.600;4.608;2022-12-11T02:48:40;1.70;99.90
23991;DHT22;12205;50.600;4.608;2022-12-11T02:51:09;1.70;99.90
23991;DHT22;12205;50.600;4.608;2022-12-11T02:53:41;1.70;99.90
23991;DHT22;12205;50.600;4.608;2022-12-11T02:56:15;1.70;99.90
23991;DHT22;12205;50.600;4.608;2022-12-11T02:58:53;1.60;99.90
23991;DHT22;12205;50.600;4.608;2022-12-11T03:01:25;1.70;99.90
23991;DHT22;12205;50.600;4.608;2022-12-11T03:03:53;1.70;99.90
23991;DHT22;12205;50.600;4.608;2022-12-11T03:06:25;1.70;99.90
23991;DHT22;12205;50.600;4.608;2022-12-11T03:08:57;1.70;99.90
23991;DHT22;12205;50.600;4.608;2022-12-11T03:11:27;1.70;99.90
23991;DHT22;12205;50.600;4.608;2022-12-11T03:13:56;1.70;99.90
23991;DHT22;12205;50.600;4.608;2022-12-11T03:16:29;1.70;99.90
23991;DHT22;12205;50.600;4.608;2022-12-11T03:19:08;1.80;99.90
23991;DHT22;12205;50.600;4.608;2022-12-11T03:21:45;1.80;99.90
23991;DHT22;12205;50.600;4.608;2022-12-11T03:24:20;1.80;99.90
23991;DHT22;12205;50.600;4.608;2022-12-11T03:26:56;1.80;99.90
23991;DHT22;12205;50.600;4.608;2022-12-11T03:29:34;1.80;99.90
23991;DHT22;12205;50.600;4.608;2022-12-11T03:32:07;1.80;99.90
23991;DHT22;12205;50.600;4.608;2022-12-11T03:34:41;1.80;99.90
23991;DHT22;12205;50.600;4.608;2022-12-11T03:37:12;1.80;99.90
23991;DHT22;12205;50.600;4.608;2022-12-11T03:39:44;1.70;99.90
23991;DHT22;12205;50.600;4.608;2022-12-11T03:42:15;1.80;99.90
23991;DHT22;12205;50.600;4.608;2022-12-11T03:44:49;1.80;99.90
23991;DHT22;12205;50.600;4.608;2022-12-11T03:47:22;1.80;99.90
23991;DHT22;12205;50.600;4.608;2022-12-11T03:49:51;1.80;99.90
23991;DHT22;12205;50.600;4.608;2022-12-11T03:52:21;1.80;99.90
23991;DHT22;12205;50.600;4.608;2022-12-11T03:54:49;1.90;99.90
23991;DHT22;12205;50.600;4.608;2022-12-11T03:57:21;1.80;99.90
23991;DHT22;12205;50.600;4.608;2022-12-11T03:59:56;1.80;99.90
23991;DHT22;12205;50.600;4.608;2022-12-11T04:02:24;1.80;99.90
23991;DHT22;12205;50.600;4.608;2022-12-11T04:04:51;1.80;99.90
23991;DHT22;12205;50.600;4.608;2022-12-11T04:07:18;1.70;99.90
23991;DHT22;12205;50.600;4.608;2022-12-11T04:09:45;1.80;99.90
23991;DHT22;12205;50.600;4.608;2022-12-11T04:12:13;1.70;99.90
23991;DHT22;12205;50.600;4.608;2022-12-11T04:14:40;1.70;99.90
23991;DHT22;12205;50.600;4.608;2022-12-11T04:17:26;1.70;99.90
23991;DHT22;12205;50.600;4.608;2022-12-11T04:20:11;1.70;99.90
23991;DHT22;12205;50.600;4.608;2022-12-11T04:22:52;1.70;99.90
23991;DHT22;12205;50.600;4.608;2022-12-11T04:25:36;1.80;99.90
23991;DHT22;12205;50.600;4.608;2022-12-11T04:28:03;1.70;99.90
23991;DHT22;12205;50.600;4.608;2022-12-11T04:30:30;1.80;99.90
23991;DHT22;12205;50.600;4.608;2022-12-11T04:32:59;1.70;99.90
23991;DHT22;12205;50.600;4.608;2022-12-11T04:35:26;1.70;99.90
23991;DHT22;12205;50.600;4.608;2022-12-11T04:37:54;1.60;99.90
23991;DHT22;12205;50.600;4.608;2022-12-11T04:40:21;1.50;99.90
23991;DHT22;12205;50.600;4.608;2022-12-11T04:42:49;1.60;99.90
23991;DHT22;12205;50.600;4.608;2022-12-11T04:45:16;1.50;99.90
23991;DHT22;12205;50.600;4.608;2022-12-11T04:47:43;1.50;99.90
23991;DHT22;12205;50.600;4.608;2022-12-11T04:50:13;1.50;99.90
23991;DHT22;12205;50.600;4.608;2022-12-11T04:52:41;1.40;99.90
23991;DHT22;12205;50.600;4.608;2022-12-11T04:55:10;1.40;99.90
23991;DHT22;12205;50.600;4.608;2022-12-11T04:57:37;1.40;99.90
23991;DHT22;12205;50.600;4.608;2022-12-11T05:00:07;1.40;99.90
23991;DHT22;12205;50.600;4.608;2022-12-11T05:02:37;1.50;99.90
23991;DHT22;12205;50.600;4.608;2022-12-11T05:05:08;1.60;99.90
23991;DHT22;12205;50.600;4.608;2022-12-11T05:07:37;1.60;99.90
23991;DHT22;12205;50.600;4.608;2022-12-11T05:10:06;1.50;99.90
23991;DHT22;12205;50.600;4.608;2022-12-11T05:12:34;1.50;99.90
23991;DHT22;12205;50.600;4.608;2022-12-11T05:15:02;1.50;99.90
23991;DHT22;12205;50.600;4.608;2022-12-11T05:17:29;1.40;99.90
23991;DHT22;12205;50.600;4.608;2022-12-11T05:19:56;1.40;99.90
23991;DHT22;12205;50.600;4.608;2022-12-11T05:22:24;1.40;99.90
23991;DHT22;12205;50.600;4.608;2022-12-11T05:24:52;1.40;99.90
23991;DHT22;12205;50.600;4.608;2022-12-11T05:27:19;1.40;99.90
23991;DHT22;12205;50.600;4.608;2022-12-11T05:29:46;1.40;99.90
23991;DHT22;12205;50.600;4.608;2022-12-11T05:32:14;1.40;99.90
23991;DHT22;12205;50.600;4.608;2022-12-11T05:34:41;1.40;99.90
23991;DHT22;12205;50.600;4.608;2022-12-11T05:37:08;1.30;99.90
23991;DHT22;12205;50.600;4.608;2022-12-11T05:39:36;1.30;99.90
23991;DHT22;12205;50.600;4.608;2022-12-11T05:42:05;1.30;99.90
23991;DHT22;12205;50.600;4.608;2022-12-11T05:44:32;1.40;99.90
23991;DHT22;12205;50.600;4.608;2022-12-11T05:47:00;1.40;99.90
23991;DHT22;12205;50.600;4.608;2022-12-11T05:49:27;1.40;99.90
23991;DHT22;12205;50.600;4.608;2022-12-11T05:51:54;1.40;99.90
23991;DHT22;12205;50.600;4.608;2022-12-11T05:54:21;1.50;99.90
23991;DHT22;12205;50.600;4.608;2022-12-11T05:56:49;1.50;99.90
23991;DHT22;12205;50.600;4.608;2022-12-11T05:59:18;1.50;99.90
23991;DHT22;12205;50.600;4.608;2022-12-11T06:01:45;1.50;99.90
23991;DHT22;12205;50.600;4.608;2022-12-11T06:04:12;1.50;99.90
23991;DHT22;12205;50.600;4.608;2022-12-11T06:06:40;1.50;99.90
23991;DHT22;12205;50.600;4.608;2022-12-11T06:09:13;1.50;99.90
23991;DHT22;12205;50.600;4.608;2022-12-11T06:11:41;1.50;99.90
23991;DHT22;12205;50.600;4.608;2022-12-11T06:14:09;1.60;99.90
23991;DHT22;12205;50.600;4.608;2022-12-11T06:16:39;1.60;99.90
23991;DHT22;12205;50.600;4.608;2022-12-11T06:19:12;1.60;99.90
23991;DHT22;12205;50.600;4.608;2022-12-11T06:21:40;1.60;99.90
23991;DHT22;12205;50.600;4.608;2022-12-11T06:24:09;1.60;99.90
23991;DHT22;12205;50.600;4.608;2022-12-11T06:26:37;1.60;99.90
23991;DHT22;12205;50.600;4.608;2022-12-11T06:29:04;1.60;99.90
23991;DHT22;12205;50.600;4.608;2022-12-11T06:31:32;1.60;99.90
23991;DHT22;12205;50.600;4.608;2022-12-11T06:34:00;1.60;99.90
23991;DHT22;12205;50.600;4.608;2022-12-11T06:36:27;1.50;99.90
23991;DHT22;12205;50.600;4.608;2022-12-11T06:38:54;1.50;99.90
23991;DHT22;12205;50.600;4.608;2022-12-11T06:41:21;1.50;99.90
23991;DHT22;12205;50.600;4.608;2022-12-11T06:43:49;1.50;99.90
23991;DHT22;12205;50.600;4.608;2022-12-11T06:46:17;1.50;99.90
23991;DHT22;12205;50.600;4.608;2022-12-11T06:48:46;1.50;99.90
23991;DHT22;12205;50.600;4.608;2022-12-11T06:51:16;1.40;99.90
23991;DHT22;12205;50.600;4.608;2022-12-11T06:53:49;1.40;99.90
23991;DHT22;12205;50.600;4.608;2022-12-11T06:56:18;1.40;99.90
23991;DHT22;12205;50.600;4.608;2022-12-11T06:58:45;1.50;99.90
23991;DHT22;12205;50.600;4.608;2022-12-11T07:01:17;1.50;99.90
23991;DHT22;12205;50.600;4.608;2022-12-11T07:03:46;1.40;99.90
23991;DHT22;12205;50.600;4.608;2022-12-11T07:06:15;1.40;99.90
23991;DHT22;12205;50.600;4.608;2022-12-11T07:08:42;1.30;99.90
23991;DHT22;12205;50.600;4.608;2022-12-11T07:11:13;1.30;99.90
23991;DHT22;12205;50.600;4.608;2022-12-11T07:13:41;1.30;99.90
23991;DHT22;12205;50.600;4.608;2022-12-11T07:16:10;1.40;99.90
23991;DHT22;12205;50.600;4.608;2022-12-11T07:18:40;1.30;99.90
23991;DHT22;12205;50.600;4.608;2022-12-11T07:21:12;1.30;99.90
23991;DHT22;12205;50.600;4.608;2022-12-11T07:23:41;1.40;99.90
23991;DHT22;12205;50.600;4.608;2022-12-11T07:26:10;1.30;99.90
23991;DHT22;12205;50.600;4.608;2022-12-11T07:28:39;1.40;99.90
23991;DHT22;12205;50.600;4.608;2022-12-11T07:31:08;1.40;99.90
23991;DHT22;12205;50.600;4.608;2022-12-11T07:33:36;1.40;99.90
23991;DHT22;12205;50.600;4.608;2022-12-11T07:36:05;1.40;99.90
23991;DHT22;12205;50.600;4.608;2022-12-11T07:38:34;1.50;99.90
23991;DHT22;12205;50.600;4.608;2022-12-11T07:41:05;1.50;99.90
23991;DHT22;12205;50.600;4.608;2022-12-11T07:43:34;1.40;99.90
23991;DHT22;12205;50.600;4.608;2022-12-11T07:46:03;1.40;99.90
23991;DHT22;12205;50.600;4.608;2022-12-11T07:48:34;1.40;99.90
23991;DHT22;12205;50.600;4.608;2022-12-11T07:51:08;1.40;99.90
23991;DHT22;12205;50.600;4.608;2022-12-11T07:53:37;1.50;99.90
23991;DHT22;12205;50.600;4.608;2022-12-11T07:56:06;1.40;99.90
23991;DHT22;12205;50.600;4.608;2022-12-11T07:58:34;1.40;99.90
23991;DHT22;12205;50.600;4.608;2022-12-11T08:01:03;1.40;99.90
23991;DHT22;12205;50.600;4.608;2022-12-11T08:03:31;1.40;99.90
23991;DHT22;12205;50.600;4.608;2022-12-11T08:05:58;1.30;99.90
23991;DHT22;12205;50.600;4.608;2022-12-11T08:08:25;1.30;99.90
23991;DHT22;12205;50.600;4.608;2022-12-11T08:10:52;1.30;99.90
23991;DHT22;12205;50.600;4.608;2022-12-11T08:13:21;1.40;99.90
23991;DHT22;12205;50.600;4.608;2022-12-11T08:15:48;1.40;99.90
23991;DHT22;12205;50.600;4.608;2022-12-11T08:18:15;1.40;99.90
23991;DHT22;12205;50.600;4.608;2022-12-11T08:20:43;1.40;99.90
23991;DHT22;12205;50.600;4.608;2022-12-11T08:23:10;1.50;99.90
23991;DHT22;12205;50.600;4.608;2022-12-11T08:25:37;1.50;99.90
23991;DHT22;12205;50.600;4.608;2022-12-11T08:28:05;1.60;99.90
23991;DHT22;12205;50.600;4.608;2022-12-11T08:30:33;1.50;99.90
23991;DHT22;12205;50.600;4.608;2022-12-11T08:33:00;1.60;99.90
23991;DHT22;12205;50.600;4.608;2022-12-11T08:35:27;1.70;99.90
23991;DHT22;12205;50.600;4.608;2022-12-11T08:37:55;1.70;99.90
23991;DHT22;12205;50.600;4.608;2022-12-11T08:40:22;1.70;99.90
23991;DHT22;12205;50.600;4.608;2022-12-11T08:42:49;1.80;99.90
23991;DHT22;12205;50.600;4.608;2022-12-11T08:45:17;1.80;99.90
23991;DHT22;12205;50.600;4.608;2022-12-11T08:47:45;1.80;99.90
23991;DHT22;12205;50.600;4.608;2022-12-11T08:50:12;1.80;99.90
23991;DHT22;12205;50.600;4.608;2022-12-11T08:52:39;1.90;99.90
23991;DHT22;12205;50.600;4.608;2022-12-11T08:55:07;2.00;99.90
23991;DHT22;12205;50.600;4.608;2022-12-11T08:57:34;2.00;99.90
23991;DHT22;12205;50.600;4.608;2022-12-11T09:00:06;2.10;99.90
23991;DHT22;12205;50.600;4.608;2022-12-11T09:02:34;2.00;99.90
23991;DHT22;12205;50.600;4.608;2022-12-11T09:05:04;2.00;99.90
23991;DHT22;12205;50.600;4.608;2022-12-11T09:07:32;2.10;99.90
23991;DHT22;12205;50.600;4.608;2022-12-11T09:10:00;2.10;99.90
23991;DHT22;12205;50.600;4.608;2022-12-11T09:12:27;2.10;99.90
23991;DHT22;12205;50.600;4.608;2022-12-11T09:14:54;2.10;99.90
23991;DHT22;12205;50.600;4.608;2022-12-11T09:17:22;2.20;99.90
23991;DHT22;12205;50.600;4.608;2022-12-11T09:19:49;2.10;99.90
23991;DHT22;12205;50.600;4.608;2022-12-11T09:22:17;2.10;99.90
23991;DHT22;12205;50.600;4.608;2022-12-11T09:24:45;2.20;99.90
23991;DHT22;12205;50.600;4.608;2022-12-11T09:27:12;2.30;99.90
23991;DHT22;12205;50.600;4.608;2022-12-11T09:29:39;2.20;99.90
23991;DHT22;12205;50.600;4.608;2022-12-11T09:32:06;2.20;99.90
23991;DHT22;12205;50.600;4.608;2022-12-11T09:34:34;2.20;99.90
23991;DHT22;12205;50.600;4.608;2022-12-11T09:37:01;2.20;99.90
23991;DHT22;12205;50.600;4.608;2022-12-11T09:39:29;2.20;99.90
23991;DHT22;12205;50.600;4.608;2022-12-11T09:42:01;2.20;99.90
23991;DHT22;12205;50.600;4.608;2022-12-11T09:44:45;2.10;99.90
23991;DHT22;12205;50.600;4.608;2022-12-11T09:47:22;2.20;99.90
23991;DHT22;12205;50.600;4.608;2022-12-11T09:50:01;2.30;99.90
23991;DHT22;12205;50.600;4.608;2022-12-11T09:52:35;2.30;99.90
23991;DHT22;12205;50.600;4.608;2022-12-11T09:55:13;2.40;99.90
23991;DHT22;12205;50.600;4.608;2022-12-11T09:57:50;2.40;99.90
23991;DHT22;12205;50.600;4.608;2022-12-11T10:00:26;2.40;99.90
23991;DHT22;12205;50.600;4.608;2022-12-11T10:06:13;2.20;99.90
23991;DHT22;12205;50.600;4.608;2022-12-11T10:08:52;2.20;99.90
23991;DHT22;12205;50.600;4.608;2022-12-11T10:11:38;2.20;99.90
23991;DHT22;12205;50.600;4.608;2022-12-11T10:14:21;2.20;99.90
23991;DHT22;12205;50.600;4.608;2022-12-11T10:16:57;2.30;99.90
23991;DHT22;12205;50.600;4.608;2022-12-11T10:19:30;2.40;99.90
23991;DHT22;12205;50.600;4.608;2022-12-11T10:21:59;2.40;99.90
23991;DHT22;12205;50.600;4.608;2022-12-11T10:24:33;2.50;99.90
23991;DHT22;12205;50.600;4.608;2022-12-11T10:27:13;2.40;99.90
23991;DHT22;12205;50.600;4.608;2022-12-11T10:29:44;2.40;99.90
23991;DHT22;12205;50.600;4.608;2022-12-11T10:32:20;2.50;99.90
23991;DHT22;12205;50.600;4.608;2022-12-11T10:34:54;2.50;99.90
23991;DHT22;12205;50.600;4.608;2022-12-11T10:37:25;2.50;99.90
23991;DHT22;12205;50.600;4.608;2022-12-11T10:39:53;2.50;99.90
23991;DHT22;12205;50.600;4.608;2022-12-11T10:42:22;2.60;99.90
23991;DHT22;12205;50.600;4.608;2022-12-11T10:44:57;2.70;99.90
23991;DHT22;12205;50.600;4.608;2022-12-11T10:47:26;2.70;99.90
23991;DHT22;12205;50.600;4.608;2022-12-11T10:49:56;2.80;99.90
23991;DHT22;12205;50.600;4.608;2022-12-11T10:52:26;2.80;99.90
23991;DHT22;12205;50.600;4.608;2022-12-11T10:54:59;2.80;99.90
23991;DHT22;12205;50.600;4.608;2022-12-11T10:57:31;2.90;99.90
23991;DHT22;12205;50.600;4.608;2022-12-11T11:00:02;2.90;99.90
23991;DHT22;12205;50.600;4.608;2022-12-11T11:02:49;3.00;99.90
23991;DHT22;12205;50.600;4.608;2022-12-11T11:05:27;3.00;99.90
23991;DHT22;12205;50.600;4.608;2022-12-11T11:08:18;3.10;99.90
23991;DHT22;12205;50.600;4.608;2022-12-11T11:10:51;3.00;99.90
23991;DHT22;12205;50.600;4.608;2022-12-11T11:13:24;2.90;99.90
23991;DHT22;12205;50.600;4.608;2022-12-11T11:15:57;2.80;99.90
23991;DHT22;12205;50.600;4.608;2022-12-11T11:18:28;2.90;99.90
23991;DHT22;12205;50.600;4.608;2022-12-11T11:20:57;2.80;99.90
23991;DHT22;12205;50.600;4.608;2022-12-11T11:23:25;2.70;99.90
23991;DHT22;12205;50.600;4.608;2022-12-11T11:25:55;2.80;99.90
23991;DHT22;12205;50.600;4.608;2022-12-11T11:28:28;2.90;99.90
23991;DHT22;12205;50.600;4.608;2022-12-11T11:31:01;2.90;99.90
23991;DHT22;12205;50.600;4.608;2022-12-11T11:33:32;2.90;99.90
23991;DHT22;12205;50.600;4.608;2022-12-11T11:36:02;2.90;99.90
23991;DHT22;12205;50.600;4.608;2022-12-11T11:38:34;3.00;99.90
23991;DHT22;12205;50.600;4.608;2022-12-11T11:41:11;3.00;99.90
23991;DHT22;12205;50.600;4.608;2022-12-11T11:43:46;3.00;99.90
23991;DHT22;12205;50.600;4.608;2022-12-11T11:46:18;3.00;99.90
23991;DHT22;12205;50.600;4.608;2022-12-11T11:48:57;3.10;99.90
23991;DHT22;12205;50.600;4.608;2022-12-11T11:51:34;3.10;99.90
23991;DHT22;12205;50.600;4.608;2022-12-11T11:54:14;3.20;99.90
23991;DHT22;12205;50.600;4.608;2022-12-11T11:56:52;3.30;99.90
23991;DHT22;12205;50.600;4.608;2022-12-11T11:59:25;3.20;99.90
23991;DHT22;12205;50.600;4.608;2022-12-11T12:01:56;3.20;99.90
23991;DHT22;12205;50.600;4.608;2022-12-11T12:04:28;3.30;99.90
23991;DHT22;12205;50.600;4.608;2022-12-11T12:07:17;3.30;99.90
23991;DHT22;12205;50.600;4.608;2022-12-11T12:10:00;3.40;99.90
23991;DHT22;12205;50.600;4.608;2022-12-11T12:12:39;3.50;99.90
23991;DHT22;12205;50.600;4.608;2022-12-11T12:15:24;3.70;99.90
23991;DHT22;12205;50.600;4.608;2022-12-11T12:18:08;3.80;99.90
23991;DHT22;12205;50.600;4.608;2022-12-11T12:20:47;3.80;99.90
23991;DHT22;12205;50.600;4.608;2022-12-11T12:23:33;3.90;99.90
23991;DHT22;12205;50.600;4.608;2022-12-11T12:26:14;3.90;99.90
23991;DHT22;12205;50.600;4.608;2022-12-11T12:28:51;4.00;99.90
23991;DHT22;12205;50.600;4.608;2022-12-11T12:31:44;4.00;99.90
23991;DHT22;12205;50.600;4.608;2022-12-11T12:34:28;4.10;99.90
23991;DHT22;12205;50.600;4.608;2022-12-11T12:37:11;4.10;99.90
23991;DHT22;12205;50.600;4.608;2022-12-11T12:39:55;4.10;99.90
23991;DHT22;12205;50.600;4.608;2022-12-11T12:42:36;4.00;99.90
23991;DHT22;12205;50.600;4.608;2022-12-11T12:45:16;4.00;99.90
23991;DHT22;12205;50.600;4.608;2022-12-11T12:47:53;3.90;99.90
23991;DHT22;12205;50.600;4.608;2022-12-11T12:50:22;3.90;99.90
23991;DHT22;12205;50.600;4.608;2022-12-11T12:52:52;3.80;99.90
23991;DHT22;12205;50.600;4.608;2022-12-11T12:55:23;3.80;99.90
23991;DHT22;12205;50.600;4.608;2022-12-11T12:57:55;3.80;99.90
23991;DHT22;12205;50.600;4.608;2022-12-11T13:00:27;3.70;99.90
23991;DHT22;12205;50.600;4.608;2022-12-11T13:02:57;3.70;99.90
23991;DHT22;12205;50.600;4.608;2022-12-11T13:05:29;3.70;99.90
23991;DHT22;12205;50.600;4.608;2022-12-11T13:08:02;3.70;99.90
23991;DHT22;12205;50.600;4.608;2022-12-11T13:10:32;3.70;99.90
23991;DHT22;12205;50.600;4.608;2022-12-11T13:13:03;3.70;99.90
23991;DHT22;12205;50.600;4.608;2022-12-11T13:15:36;3.60;99.90
23991;DHT22;12205;50.600;4.608;2022-12-11T13:18:31;3.60;99.90
23991;DHT22;12205;50.600;4.608;2022-12-11T13:21:00;3.60;99.90
23991;DHT22;12205;50.600;4.608;2022-12-11T13:23:30;3.60;99.90
23991;DHT22;12205;50.600;4.608;2022-12-11T13:26:00;3.60;99.90
23991;DHT22;12205;50.600;4.608;2022-12-11T13:28:31;3.60;99.90
23991;DHT22;12205;50.600;4.608;2022-12-11T13:31:07;3.60;99.90
23991;DHT22;12205;50.600;4.608;2022-12-11T13:33:56;3.70;99.90
23991;DHT22;12205;50.600;4.608;2022-12-11T13:36:35;3.70;99.90
23991;DHT22;12205;50.600;4.608;2022-12-11T13:39:07;3.60;99.90
23991;DHT22;12205;50.600;4.608;2022-12-11T13:41:46;3.70;99.90
23991;DHT22;12205;50.600;4.608;2022-12-11T13:44:21;3.60;99.90
23991;DHT22;12205;50.600;4.608;2022-12-11T13:46:54;3.60;99.90
23991;DHT22;12205;50.600;4.608;2022-12-11T13:49:27;3.60;99.90
23991;DHT22;12205;50.600;4.608;2022-12-11T13:52:00;3.70;99.90
23991;DHT22;12205;50.600;4.608;2022-12-11T13:54:30;3.70;99.90
23991;DHT22;12205;50.600;4.608;2022-12-11T13:57:02;3.60;99.90
23991;DHT22;12205;50.600;4.608;2022-12-11T13:59:42;3.60;99.90
23991;DHT22;12205;50.600;4.608;2022-12-11T14:02:18;3.60;99.90
23991;DHT22;12205;50.600;4.608;2022-12-11T14:04:51;3.70;99.90
23991;DHT22;12205;50.600;4.608;2022-12-11T14:07:25;3.70;99.90
23991;DHT22;12205;50.600;4.608;2022-12-11T14:09:59;3.70;99.90
23991;DHT22;12205;50.600;4.608;2022-12-11T14:12:31;3.70;99.90
23991;DHT22;12205;50.600;4.608;2022-12-11T14:15:00;3.70;99.90
23991;DHT22;12205;50.600;4.608;2022-12-11T14:17:30;3.70;99.90
23991;DHT22;12205;50.600;4.608;2022-12-11T14:20:03;3.70;99.90
23991;DHT22;12205;50.600;4.608;2022-12-11T14:22:32;3.70;99.90
23991;DHT22;12205;50.600;4.608;2022-12-11T14:25:01;3.70;99.90
23991;DHT22;12205;50.600;4.608;2022-12-11T14:27:47;3.80;99.90
23991;DHT22;12205;50.600;4.608;2022-12-11T14:30:20;3.80;99.90
23991;DHT22;12205;50.600;4.608;2022-12-11T14:32:50;3.60;99.90
23991;DHT22;12205;50.600;4.608;2022-12-11T14:35:26;3.40;99.90
23991;DHT22;12205;50.600;4.608;2022-12-11T14:37:57;3.50;99.90
23991;DHT22;12205;50.600;4.608;2022-12-11T14:40:32;3.40;99.90
23991;DHT22;12205;50.600;4.608;2022-12-11T14:43:08;3.40;99.90
23991;DHT22;12205;50.600;4.608;2022-12-11T14:45:41;3.40;99.90
23991;DHT22;12205;50.600;4.608;2022-12-11T14:48:17;3.40;99.90
23991;DHT22;12205;50.600;4.608;2022-12-11T14:50:51;3.40;99.90
23991;DHT22;12205;50.600;4.608;2022-12-11T14:53:23;3.40;99.90
23991;DHT22;12205;50.600;4.608;2022-12-11T14:55:54;3.30;99.90
23991;DHT22;12205;50.600;4.608;2022-12-11T14:58:27;3.30;99.90
23991;DHT22;12205;50.600;4.608;2022-12-11T15:00:57;3.30;99.90
23991;DHT22;12205;50.600;4.608;2022-12-11T15:03:30;3.20;99.90
23991;DHT22;12205;50.600;4.608;2022-12-11T15:06:01;3.20;99.90
23991;DHT22;12205;50.600;4.608;2022-12-11T15:08:46;3.20;99.90
23991;DHT22;12205;50.600;4.608;2022-12-11T15:11:15;3.20;99.90
23991;DHT22;12205;50.600;4.608;2022-12-11T15:13:50;3.20;99.90
23991;DHT22;12205;50.600;4.608;2022-12-11T15:16:20;3.20;99.90
23991;DHT22;12205;50.600;4.608;2022-12-11T15:18:49;3.20;99.90
23991;DHT22;12205;50.600;4.608;2022-12-11T15:21:27;3.20;99.90
23991;DHT22;12205;50.600;4.608;2022-12-11T15:23:57;3.20;99.90
23991;DHT22;12205;50.600;4.608;2022-12-11T15:26:33;3.20;99.90
23991;DHT22;12205;50.600;4.608;2022-12-11T15:29:04;3.20;99.90
23991;DHT22;12205;50.600;4.608;2022-12-11T15:31:58;3.20;99.90
23991;DHT22;12205;50.600;4.608;2022-12-11T15:34:31;3.10;99.90
23991;DHT22;12205;50.600;4.608;2022-12-11T15:37:01;3.10;99.90
23991;DHT22;12205;50.600;4.608;2022-12-11T15:39:28;2.90;99.90
23991;DHT22;12205;50.600;4.608;2022-12-11T15:41:56;2.90;99.90
23991;DHT22;12205;50.600;4.608;2022-12-11T15:44:23;2.80;99.90
23991;DHT22;12205;50.600;4.608;2022-12-11T15:46:50;2.70;99.90
23991;DHT22;12205;50.600;4.608;2022-12-11T15:49:17;2.70;99.90
23991;DHT22;12205;50.600;4.608;2022-12-11T15:51:48;2.70;99.90
23991;DHT22;12205;50.600;4.608;2022-12-11T15:54:18;2.60;99.90
23991;DHT22;12205;50.600;4.608;2022-12-11T15:56:45;2.50;99.90
23991;DHT22;12205;50.600;4.608;2022-12-11T15:59:13;2.40;99.90
23991;DHT22;12205;50.600;4.608;2022-12-11T16:01:41;2.30;99.90
23991;DHT22;12205;50.600;4.608;2022-12-11T16:04:09;2.30;99.90
23991;DHT22;12205;50.600;4.608;2022-12-11T16:06:36;2.20;99.90
23991;DHT22;12205;50.600;4.608;2022-12-11T16:09:09;2.20;99.90
23991;DHT22;12205;50.600;4.608;2022-12-11T16:11:38;2.20;99.90
23991;DHT22;12205;50.600;4.608;2022-12-11T16:14:05;2.20;99.90